Time;durP1;ratioP1;P1;durP2;ratioP2;P2;SDS_P1;SDS_P2;PMS_P1;PMS_P2;Temp;Humidity;BMP_temperature;BMP_pressure;BME280_temperature;BME280_humidity;BME280_pressure;Samples;Min_cycle;Max_cycle;Signal;HPM_P1;HPM_P2
2023/05/16 00:00:25;;;;;;;1.60;1.00;;;10.50;99.90;;;;;;5095736;28;20179;-44
2023/05/16 00:02:50;;;;;;;1.07;0.80;;;10.40;99.90;;;;;;5095603;28;20784;-47
2023/05/16 00:05:16;;;;;;;1.23;1.00;;;10.40;99.90;;;;;;5096057;28;20209;-45
2023/05/16 00:07:43;;;;;;;4.20;1.03;;;10.20;99.90;;;;;;5094278;28;20175;-45
2023/05/16 00:10:10;;;;;;;1.47;0.93;;;10.20;99.90;;;;;;5095792;28;20182;-45
2023/05/16 00:12:36;;;;;;;1.73;0.80;;;10.10;99.90;;;;;;5094076;28;20195;-45
2023/05/16 00:15:04;;;;;;;2.90;1.20;;;10.00;99.90;;;;;;5095315;28;20194;-46
2023/05/16 00:17:29;;;;;;;2.00;1.00;;;9.90;99.90;;;;;;5095537;28;20191;-45
2023/05/16 00:19:57;;;;;;;1.83;1.00;;;9.90;99.90;;;;;;5095727;28;20232;-44
2023/05/16 00:22:24;;;;;;;3.47;1.00;;;9.90;99.90;;;;;;5095087;28;20174;-45
2023/05/16 00:24:50;;;;;;;3.30;1.20;;;9.80;99.90;;;;;;5095331;28;20206;-44
2023/05/16 00:27:15;;;;;;;3.47;1.30;;;9.80;99.90;;;;;;5095461;28;20628;-45
2023/05/16 00:29:41;;;;;;;6.50;1.30;;;9.80;99.90;;;;;;5093689;28;20650;-46
2023/05/16 00:32:07;;;;;;;3.67;1.07;;;9.70;99.90;;;;;;5094895;28;20240;-44
2023/05/16 00:34:33;;;;;;;3.77;1.10;;;9.70;99.90;;;;;;5094974;28;20212;-43
2023/05/16 00:36:59;;;;;;;5.50;1.60;;;9.70;99.90;;;;;;5094722;28;20582;-45
2023/05/16 00:39:25;;;;;;;3.17;1.40;;;9.60;99.90;;;;;;5094568;28;20198;-44
2023/05/16 00:41:51;;;;;;;3.40;1.33;;;9.60;99.90;;;;;;5093738;28;20218;-44
2023/05/16 00:44:16;;;;;;;5.80;1.50;;;9.50;99.90;;;;;;5095978;28;20210;-46
2023/05/16 00:46:42;;;;;;;3.67;1.00;;;9.50;99.90;;;;;;5095347;28;20237;-47
2023/05/16 00:49:08;;;;;;;4.40;1.10;;;9.50;99.90;;;;;;5094929;28;20179;-47
2023/05/16 00:51:35;;;;;;;4.53;1.50;;;9.50;99.90;;;;;;5093345;28;20179;-47
2023/05/16 00:54:01;;;;;;;5.80;1.70;;;9.50;99.90;;;;;;5094380;28;20210;-47
2023/05/16 00:56:27;;;;;;;4.77;1.37;;;9.50;99.90;;;;;;5094806;28;20182;-45
2023/05/16 00:58:53;;;;;;;4.50;1.30;;;9.50;99.90;;;;;;5094428;28;20569;-45
2023/05/16 01:01:22;;;;;;;4.30;1.10;;;9.50;99.90;;;;;;5095198;28;20183;-46
2023/05/16 01:03:48;;;;;;;2.63;1.60;;;9.40;99.90;;;;;;5094430;28;20297;-46
2023/05/16 01:06:14;;;;;;;5.30;1.80;;;9.50;99.90;;;;;;5094301;28;20185;-44
2023/05/16 01:08:40;;;;;;;11.17;1.57;;;9.40;99.90;;;;;;5094276;28;20175;-45
2023/05/16 01:11:18;;;;;;;4.43;1.63;;;9.50;99.90;;;;;;5094552;28;20171;-45
2023/05/16 01:14:04;;;;;;;5.67;1.70;;;9.40;99.90;;;;;;5094629;28;20199;-47
2023/05/16 01:16:37;;;;;;;7.30;1.90;;;9.40;99.90;;;;;;5094597;28;20220;-46
2023/05/16 01:19:27;;;;;;;4.93;1.60;;;9.40;99.90;;;;;;5096799;28;20624;-45
2023/05/16 01:22:01;;;;;;;5.27;1.67;;;9.40;99.90;;;;;;5096040;28;20213;-48
2023/05/16 01:24:55;;;;;;;4.20;1.50;;;9.40;99.90;;;;;;5092718;28;20283;-47
2023/05/16 01:27:23;;;;;;;6.97;2.13;;;9.50;99.90;;;;;;5094139;28;20186;-47
2023/05/16 01:29:55;;;;;;;4.37;1.93;;;9.40;99.90;;;;;;5093897;28;20197;-47
2023/05/16 01:32:21;;;;;;;8.50;1.70;;;9.40;99.90;;;;;;5094430;28;20163;-47
2023/05/16 01:34:47;;;;;;;5.63;2.03;;;9.30;99.90;;;;;;5094125;28;20253;-47
2023/05/16 01:37:23;;;;;;;9.20;2.00;;;9.30;99.90;;;;;;5094088;28;20274;-46
2023/05/16 01:40:15;;;;;;;7.60;2.03;;;9.30;99.90;;;;;;5093735;28;20205;-45
2023/05/16 01:42:44;;;;;;;6.37;1.90;;;9.30;99.90;;;;;;5093900;28;20195;-47
2023/05/16 01:45:33;;;;;;;9.00;2.00;;;9.30;99.90;;;;;;5092727;28;20209;-45
2023/05/16 01:48:12;;;;;;;6.40;2.13;;;9.20;99.90;;;;;;5093594;28;20167;-46
2023/05/16 01:50:45;;;;;;;9.67;2.07;;;9.20;99.90;;;;;;5093516;28;20170;-46
2023/05/16 01:53:25;;;;;;;6.87;2.10;;;9.20;99.90;;;;;;5093784;28;20187;-48
2023/05/16 01:55:52;;;;;;;4.60;1.70;;;9.20;99.90;;;;;;5093650;28;20224;-44
2023/05/16 01:58:24;;;;;;;9.00;2.00;;;9.20;99.90;;;;;;5093758;28;20194;-48
2023/05/16 02:00:52;;;;;;;8.30;1.80;;;9.20;99.90;;;;;;5093444;28;20280;-43
2023/05/16 02:03:18;;;;;;;11.33;2.13;;;9.20;99.90;;;;;;5093486;28;20199;-47
2023/05/16 02:05:43;;;;;;;9.80;2.10;;;9.20;99.90;;;;;;5093644;28;20675;-44
2023/05/16 02:08:09;;;;;;;6.20;1.80;;;9.10;99.90;;;;;;5093346;28;20207;-44
2023/05/16 02:10:34;;;;;;;7.27;3.00;;;9.10;99.90;;;;;;5093395;28;20175;-46
2023/05/16 02:13:00;;;;;;;9.03;2.10;;;9.10;99.90;;;;;;5093249;28;20674;-45
2023/05/16 02:15:26;;;;;;;8.33;1.93;;;9.10;99.90;;;;;;5093335;28;20190;-44
2023/05/16 02:17:51;;;;;;;7.93;2.20;;;9.10;99.90;;;;;;5093335;28;20175;-45
2023/05/16 02:20:17;;;;;;;10.17;2.47;;;9.10;99.90;;;;;;5093257;28;20187;-46
2023/05/16 02:22:43;;;;;;;10.63;2.20;;;9.10;99.90;;;;;;5093199;28;20701;-45
2023/05/16 02:25:09;;;;;;;10.07;2.60;;;9.10;99.90;;;;;;5093352;28;20203;-43
2023/05/16 02:27:35;;;;;;;14.43;2.23;;;9.00;99.90;;;;;;5093534;28;20183;-49
2023/05/16 02:30:01;;;;;;;10.60;2.70;;;9.00;99.90;;;;;;5093418;28;20232;-50
2023/05/16 02:32:26;;;;;;;17.27;3.00;;;9.00;99.90;;;;;;5093113;28;20195;-46
2023/05/16 02:34:52;;;;;;;7.83;2.37;;;8.90;99.90;;;;;;5093259;28;20239;-46
2023/05/16 02:37:17;;;;;;;7.27;2.07;;;8.90;99.90;;;;;;5093426;28;20265;-45
2023/05/16 02:39:43;;;;;;;10.60;2.10;;;8.90;99.90;;;;;;5092964;28;20202;-45
2023/05/16 02:42:09;;;;;;;9.50;2.37;;;8.90;99.90;;;;;;5093010;28;20270;-45
2023/05/16 02:44:34;;;;;;;12.97;2.70;;;8.90;99.90;;;;;;5093257;28;20211;-44
2023/05/16 02:47:00;;;;;;;13.73;1.90;;;8.80;99.90;;;;;;5093095;28;20245;-43
2023/05/16 02:49:25;;;;;;;6.13;2.00;;;8.80;99.90;;;;;;5108801;28;20712;-45
2023/05/16 02:51:51;;;;;;;11.40;2.30;;;8.80;99.90;;;;;;5092916;28;20178;-45
2023/05/16 02:54:17;;;;;;;13.67;2.53;;;8.80;99.90;;;;;;5093153;28;20573;-46
2023/05/16 02:56:43;;;;;;;10.77;2.60;;;8.70;99.90;;;;;;5092958;28;20664;-44
2023/05/16 02:59:10;;;;;;;12.37;3.13;;;8.80;99.90;;;;;;5092880;28;20198;-44
2023/05/16 03:01:35;;;;;;;9.07;2.40;;;8.70;99.90;;;;;;5096285;28;20221;-43
2023/05/16 03:04:01;;;;;;;15.87;2.17;;;8.70;99.90;;;;;;5096662;28;20238;-44
2023/05/16 03:06:26;;;;;;;9.37;2.23;;;8.70;99.90;;;;;;5096691;28;20638;-42
2023/05/16 03:08:52;;;;;;;10.33;2.43;;;8.60;99.90;;;;;;5096657;28;20182;-44
2023/05/16 03:11:21;;;;;;;9.07;2.27;;;8.60;99.90;;;;;;5097251;28;20189;-45
2023/05/16 03:13:47;;;;;;;14.00;2.87;;;8.60;99.90;;;;;;5097163;28;20214;-43
2023/05/16 03:16:14;;;;;;;9.73;2.20;;;8.50;99.90;;;;;;5096435;28;20260;-44
2023/05/16 03:18:40;;;;;;;9.63;2.23;;;8.50;99.90;;;;;;5096402;28;20656;-44
2023/05/16 03:21:05;;;;;;;12.70;2.77;;;8.40;99.90;;;;;;5096386;28;20256;-45
2023/05/16 03:23:31;;;;;;;13.63;2.47;;;8.40;99.90;;;;;;5096260;28;20198;-45
2023/05/16 03:25:56;;;;;;;10.10;2.10;;;8.40;99.90;;;;;;5097002;28;20256;-45
2023/05/16 03:28:22;;;;;;;5.53;2.33;;;8.30;99.90;;;;;;5096154;28;20293;-45
2023/05/16 03:30:48;;;;;;;9.40;2.07;;;8.30;99.90;;;;;;5096161;28;20182;-45
2023/05/16 03:33:13;;;;;;;5.60;1.63;;;8.20;99.90;;;;;;5096088;28;20250;-44
2023/05/16 03:35:39;;;;;;;9.70;2.53;;;8.10;99.90;;;;;;5096096;28;20258;-45
2023/05/16 03:38:05;;;;;;;8.47;2.23;;;8.10;99.90;;;;;;5096319;28;20201;-45
2023/05/16 03:40:31;;;;;;;7.87;2.07;;;8.10;99.90;;;;;;5095936;28;20187;-45
2023/05/16 03:42:56;;;;;;;9.93;2.17;;;8.00;99.90;;;;;;5095889;28;20243;-46
2023/05/16 03:45:22;;;;;;;9.70;2.40;;;8.00;99.90;;;;;;5095818;28;20201;-44
2023/05/16 03:47:48;;;;;;;11.17;2.40;;;8.00;99.90;;;;;;5096194;28;20338;-46
2023/05/16 03:50:15;;;;;;;7.07;2.37;;;7.90;99.90;;;;;;5095824;28;20252;-46
2023/05/16 03:52:40;;;;;;;10.93;2.17;;;7.90;99.90;;;;;;5096011;28;20233;-45
2023/05/16 03:55:07;;;;;;;10.93;2.27;;;7.90;99.90;;;;;;5095797;28;20276;-45
2023/05/16 03:57:33;;;;;;;12.43;2.07;;;7.80;99.90;;;;;;5095896;28;20600;-46
2023/05/16 03:59:59;;;;;;;8.50;2.30;;;7.80;99.90;;;;;;5095836;28;20208;-47
2023/05/16 04:02:25;;;;;;;11.57;2.43;;;7.80;99.90;;;;;;5096125;28;20200;-46
2023/05/16 04:04:50;;;;;;;13.17;2.03;;;7.70;99.90;;;;;;5095584;28;20201;-47
2023/05/16 04:07:16;;;;;;;7.33;1.83;;;7.70;99.90;;;;;;5096098;28;20189;-45
2023/05/16 04:09:42;;;;;;;8.00;2.00;;;7.70;99.90;;;;;;5094391;28;20182;-44
2023/05/16 04:12:07;;;;;;;11.47;2.13;;;7.70;99.90;;;;;;5094840;28;20232;-46
2023/05/16 04:14:34;;;;;;;13.60;2.17;;;7.60;99.90;;;;;;5094312;28;20636;-46
2023/05/16 04:17:00;;;;;;;13.20;2.47;;;7.60;99.90;;;;;;5096247;28;20207;-45
2023/05/16 04:19:25;;;;;;;12.80;2.10;;;7.60;99.90;;;;;;5095997;28;20182;-46
2023/05/16 04:21:51;;;;;;;13.97;2.27;;;7.60;99.90;;;;;;5097169;28;20685;-46
2023/05/16 04:24:17;;;;;;;10.00;2.10;;;7.50;99.90;;;;;;5096579;28;20216;-52
2023/05/16 04:26:43;;;;;;;10.63;2.20;;;7.50;99.90;;;;;;5095564;28;20172;-51
2023/05/16 04:29:08;;;;;;;14.43;2.00;;;7.50;99.90;;;;;;5097181;28;20186;-50
2023/05/16 04:31:35;;;;;;;9.47;2.10;;;7.50;99.90;;;;;;5108383;28;20264;-46
2023/05/16 04:34:01;;;;;;;7.27;1.83;;;7.50;99.90;;;;;;5102157;28;20211;-51
2023/05/16 04:36:28;;;;;;;10.63;2.20;;;7.50;99.90;;;;;;5095078;28;20178;-50
2023/05/16 04:38:55;;;;;;;8.17;1.77;;;7.50;99.90;;;;;;5095148;28;20185;-49
2023/05/16 04:41:21;;;;;;;8.43;2.03;;;7.50;99.90;;;;;;5095696;28;20605;-50
2023/05/16 04:43:47;;;;;;;11.50;2.00;;;7.50;99.90;;;;;;5095297;28;20213;-43
2023/05/16 04:46:14;;;;;;;10.03;2.00;;;7.50;99.90;;;;;;5093750;28;20592;-49
2023/05/16 04:48:40;;;;;;;10.03;1.87;;;7.50;99.90;;;;;;5094906;28;20171;-51
2023/05/16 04:51:05;;;;;;;9.70;1.87;;;7.50;99.90;;;;;;5095079;28;20206;-49
2023/05/16 04:53:31;;;;;;;8.53;2.00;;;7.50;99.90;;;;;;5094980;28;20197;-50
2023/05/16 04:55:56;;;;;;;9.20;1.87;;;7.50;99.90;;;;;;5094941;28;20591;-51
2023/05/16 04:58:23;;;;;;;10.23;2.10;;;7.50;99.90;;;;;;5094589;28;20176;-50
2023/05/16 05:00:50;;;;;;;9.90;2.57;;;7.50;99.90;;;;;;5094714;28;20183;-45
2023/05/16 05:03:16;;;;;;;10.00;2.43;;;7.50;99.90;;;;;;5094362;28;20195;-44
2023/05/16 05:05:42;;;;;;;10.30;2.10;;;7.50;99.90;;;;;;5094315;28;20248;-44
2023/05/16 05:08:08;;;;;;;10.33;2.07;;;7.60;99.90;;;;;;5094576;28;20212;-44
2023/05/16 05:10:34;;;;;;;10.03;2.00;;;7.50;99.90;;;;;;5094617;28;20240;-47
2023/05/16 05:13:00;;;;;;;9.47;1.70;;;7.60;99.90;;;;;;5094688;28;20243;-44
2023/05/16 05:15:26;;;;;;;11.97;2.37;;;7.60;99.90;;;;;;5094686;28;20188;-45
2023/05/16 05:17:51;;;;;;;8.93;1.77;;;7.70;99.90;;;;;;5094250;28;20661;-45
2023/05/16 05:20:17;;;;;;;11.70;2.80;;;7.70;99.90;;;;;;5094235;28;20175;-46
2023/05/16 05:22:42;;;;;;;14.17;2.10;;;7.70;99.90;;;;;;5094071;28;20191;-45
2023/05/16 05:25:08;;;;;;;12.57;2.47;;;7.80;99.90;;;;;;5094077;28;20268;-45
2023/05/16 05:27:34;;;;;;;12.90;2.50;;;7.80;99.90;;;;;;5094193;28;20185;-44
2023/05/16 05:30:00;;;;;;;13.27;2.60;;;7.90;99.90;;;;;;5094318;28;20183;-44
2023/05/16 05:32:25;;;;;;;6.67;1.80;;;7.90;99.90;;;;;;5093955;28;20249;-46
2023/05/16 05:34:51;;;;;;;9.33;2.00;;;8.00;99.90;;;;;;5094267;28;20211;-45
2023/05/16 05:37:17;;;;;;;9.20;2.63;;;8.00;99.90;;;;;;5093844;28;20639;-45
2023/05/16 05:39:43;;;;;;;12.20;2.57;;;8.00;99.90;;;;;;5093978;28;20552;-45
2023/05/16 05:42:08;;;;;;;12.10;2.47;;;9.50;99.90;;;;;;5092450;28;20181;-46
2023/05/16 05:44:34;;;;;;;10.10;2.37;;;8.10;99.90;;;;;;5093965;28;20211;-46
2023/05/16 05:46:59;;;;;;;7.53;2.10;;;8.20;99.90;;;;;;5093965;28;20180;-46
2023/05/16 05:49:28;;;;;;;5.73;1.93;;;8.20;99.90;;;;;;5093677;28;20646;-45
2023/05/16 05:51:54;;;;;;;10.03;2.80;;;8.30;99.90;;;;;;5093979;28;20541;-45
2023/05/16 05:54:20;;;;;;;10.87;2.53;;;8.30;99.90;;;;;;5093813;28;20205;-44
2023/05/16 05:56:46;;;;;;;10.80;2.60;;;8.40;99.90;;;;;;5092359;28;20175;-52
2023/05/16 05:59:11;;;;;;;10.73;2.00;;;8.50;99.90;;;;;;5094220;28;20262;-49
2023/05/16 06:01:38;;;;;;;13.43;2.37;;;8.60;99.90;;;;;;5093818;28;20651;-50
2023/05/16 06:04:03;;;;;;;12.90;2.40;;;8.60;99.90;;;;;;5093343;28;20668;-50
2023/05/16 06:06:30;;;;;;;15.70;3.03;;;8.70;99.90;;;;;;5093773;28;20258;-51
2023/05/16 06:08:56;;;;;;;12.07;2.60;;;8.80;99.90;;;;;;5093498;28;20515;-50
2023/05/16 06:11:22;;;;;;;7.80;1.50;;;8.80;99.90;;;;;;5093629;28;20178;-51
2023/05/16 06:13:47;;;;;;;11.47;2.10;;;8.80;99.90;;;;;;5093395;28;20223;-51
2023/05/16 06:16:13;;;;;;;14.27;2.40;;;9.00;99.90;;;;;;5093418;28;20184;-47
2023/05/16 06:18:39;;;;;;;12.00;2.20;;;9.00;99.90;;;;;;5093708;28;20220;-45
2023/05/16 06:21:05;;;;;;;13.10;2.60;;;9.10;99.90;;;;;;5093414;28;20177;-50
2023/05/16 06:23:31;;;;;;;11.07;2.50;;;9.20;99.90;;;;;;5093430;28;20229;-45
2023/05/16 06:25:57;;;;;;;9.93;2.30;;;9.30;99.90;;;;;;5093303;28;20194;-52
2023/05/16 06:28:23;;;;;;;11.23;2.27;;;9.40;99.90;;;;;;5093724;28;20174;-44
2023/05/16 06:30:50;;;;;;;8.97;2.10;;;9.40;99.90;;;;;;5093341;28;20178;-44
2023/05/16 06:33:16;;;;;;;11.00;2.37;;;9.50;99.90;;;;;;5092050;28;20209;-51
2023/05/16 06:35:42;;;;;;;10.27;2.23;;;9.60;99.90;;;;;;5095444;28;20171;-45
2023/05/16 06:38:08;;;;;;;11.63;1.97;;;9.70;99.90;;;;;;5097763;28;20186;-44
2023/05/16 06:40:33;;;;;;;6.23;2.40;;;9.60;99.90;;;;;;5097260;28;20278;-42
2023/05/16 06:42:59;;;;;;;6.03;1.57;;;9.70;99.90;;;;;;5097247;28;20567;-43
2023/05/16 06:45:25;;;;;;;8.73;1.80;;;9.70;99.90;;;;;;5097634;28;20206;-44
2023/05/16 06:47:51;;;;;;;9.30;2.10;;;9.70;99.90;;;;;;5100281;28;20179;-44
2023/05/16 06:50:16;;;;;;;10.47;2.30;;;9.80;99.90;;;;;;5101394;28;20639;-51
2023/05/16 06:52:42;;;;;;;6.73;1.83;;;9.80;99.90;;;;;;5096398;28;20663;-50
2023/05/16 06:55:08;;;;;;;14.00;2.37;;;9.90;99.90;;;;;;5097521;28;20171;-50
2023/05/16 06:57:33;;;;;;;13.03;2.47;;;10.10;99.90;;;;;;5097172;28;20545;-49
2023/05/16 06:59:59;;;;;;;8.67;2.10;;;10.10;99.90;;;;;;5096103;28;20190;-44
2023/05/16 07:02:25;;;;;;;11.23;1.87;;;10.20;99.90;;;;;;5096868;28;20182;-51
2023/05/16 07:04:50;;;;;;;10.13;1.70;;;10.30;99.90;;;;;;5097162;28;20217;-45
2023/05/16 07:07:16;;;;;;;8.30;2.23;;;10.50;99.90;;;;;;5097026;28;20187;-45
2023/05/16 07:09:42;;;;;;;10.17;1.93;;;10.50;99.90;;;;;;5097096;28;20208;-50
2023/05/16 07:12:08;;;;;;;8.13;2.33;;;10.60;99.90;;;;;;5095338;28;20174;-52
2023/05/16 07:14:33;;;;;;;12.33;2.30;;;10.70;99.90;;;;;;5096870;28;20186;-45
2023/05/16 07:16:59;;;;;;;7.37;1.80;;;10.80;99.90;;;;;;5096857;28;20179;-51
2023/05/16 07:19:25;;;;;;;7.67;2.33;;;11.00;99.90;;;;;;5097505;28;20182;-51
2023/05/16 07:21:51;;;;;;;9.40;2.50;;;11.10;99.90;;;;;;5096668;28;20201;-51
2023/05/16 07:24:16;;;;;;;3.83;1.33;;;11.10;99.90;;;;;;5096243;28;20255;-51
2023/05/16 07:26:42;;;;;;;12.50;3.13;;;11.20;99.90;;;;;;5095047;28;20175;-52
2023/05/16 07:29:08;;;;;;;10.77;2.23;;;11.20;99.90;;;;;;5096322;28;20171;-53
2023/05/16 07:31:33;;;;;;;10.57;2.20;;;11.20;99.90;;;;;;5096271;28;20175;-51
2023/05/16 07:33:59;;;;;;;9.17;2.00;;;11.10;99.90;;;;;;5096211;28;20194;-50
2023/05/16 07:36:25;;;;;;;10.03;2.03;;;10.90;99.90;;;;;;5096888;28;20173;-50
2023/05/16 07:38:51;;;;;;;11.00;1.93;;;10.90;99.90;;;;;;5096194;28;20631;-50
2023/05/16 07:41:16;;;;;;;10.23;2.03;;;10.90;99.90;;;;;;5096533;28;20249;-53
2023/05/16 07:43:42;;;;;;;8.03;2.40;;;10.80;99.90;;;;;;5096121;28;20249;-52
2023/05/16 07:46:07;;;;;;;8.33;2.10;;;10.80;99.90;;;;;;5095342;28;20692;-53
2023/05/16 07:48:33;;;;;;;10.33;1.83;;;10.70;99.90;;;;;;5096081;28;20167;-51
2023/05/16 07:50:58;;;;;;;8.33;2.20;;;10.70;99.90;;;;;;5096183;28;20255;-50
2023/05/16 07:53:24;;;;;;;11.47;2.07;;;10.70;99.90;;;;;;5097175;28;20202;-50
2023/05/16 07:55:50;;;;;;;8.90;2.03;;;10.60;99.90;;;;;;5099237;28;20234;-50
2023/05/16 07:58:16;;;;;;;8.47;2.30;;;10.60;99.90;;;;;;5098053;28;20174;-52
2023/05/16 08:00:41;;;;;;;10.17;2.03;;;10.70;99.90;;;;;;5096161;28;20188;-51
2023/05/16 08:03:07;;;;;;;11.70;2.20;;;11.00;99.90;;;;;;5094454;28;20203;-51
2023/05/16 08:05:32;;;;;;;11.43;1.90;;;11.20;99.90;;;;;;5094677;28;20647;-52
2023/05/16 08:07:58;;;;;;;8.37;1.97;;;11.40;99.90;;;;;;5095627;28;20216;-51
2023/05/16 08:10:23;;;;;;;11.97;1.53;;;11.60;99.90;;;;;;5095591;28;20181;-50
2023/05/16 08:12:49;;;;;;;9.90;1.93;;;11.70;99.90;;;;;;5095352;28;20292;-51
2023/05/16 08:15:15;;;;;;;7.27;1.80;;;11.80;99.90;;;;;;5095431;28;20190;-51
2023/05/16 08:17:41;;;;;;;8.03;1.83;;;11.90;99.90;;;;;;5095385;28;20179;-52
2023/05/16 08:20:07;;;;;;;7.80;1.77;;;12.20;99.90;;;;;;5095354;28;20175;-50
2023/05/16 08:22:33;;;;;;;6.63;1.70;;;12.50;99.90;;;;;;5095268;28;20277;-50
2023/05/16 08:24:59;;;;;;;14.77;1.83;;;12.40;99.90;;;;;;5095226;28;20190;-52
2023/05/16 08:27:26;;;;;;;8.63;1.43;;;12.40;99.90;;;;;;5095202;28;20177;-50
2023/05/16 08:29:52;;;;;;;8.03;1.60;;;12.20;99.90;;;;;;5095476;28;20592;-51
2023/05/16 08:32:17;;;;;;;9.00;2.37;;;12.20;99.90;;;;;;5095038;28;20590;-52
2023/05/16 08:34:43;;;;;;;5.77;1.43;;;12.10;99.90;;;;;;5095571;28;20210;-51
2023/05/16 08:37:09;;;;;;;6.73;1.60;;;11.90;99.90;;;;;;5095231;28;20526;-52
2023/05/16 08:39:37;;;;;;;5.17;1.43;;;11.90;99.90;;;;;;5094779;28;20193;-52
2023/05/16 08:42:04;;;;;;;6.03;1.40;;;11.70;99.90;;;;;;5094840;28;20185;-51
2023/05/16 08:44:29;;;;;;;7.30;1.67;;;11.80;99.90;;;;;;5094915;28;20207;-50
2023/05/16 08:46:56;;;;;;;6.70;1.73;;;11.90;99.90;;;;;;5095026;28;20210;-52
2023/05/16 08:49:26;;;;;;;8.10;1.50;;;12.10;99.90;;;;;;5095341;28;20721;-52
2023/05/16 08:51:56;;;;;;;8.53;1.63;;;12.40;99.90;;;;;;5094687;28;20641;-52
2023/05/16 08:54:22;;;;;;;4.47;1.13;;;12.70;99.90;;;;;;5094502;28;20735;-52
2023/05/16 08:56:49;;;;;;;6.27;1.20;;;12.80;99.90;;;;;;5094864;28;20228;-45
2023/05/16 08:59:15;;;;;;;5.80;1.70;;;12.80;99.90;;;;;;5094526;28;20181;-46
2023/05/16 09:01:41;;;;;;;6.30;1.77;;;12.80;99.90;;;;;;5094875;28;20186;-45
2023/05/16 09:04:08;;;;;;;4.13;1.30;;;12.90;99.90;;;;;;5094478;28;20313;-45
2023/05/16 09:06:35;;;;;;;7.40;1.40;;;13.00;99.90;;;;;;5094745;28;20182;-47
2023/05/16 09:09:01;;;;;;;5.13;1.40;;;13.00;99.90;;;;;;5094738;28;20178;-47
2023/05/16 09:11:27;;;;;;;6.03;1.60;;;13.10;99.90;;;;;;5094489;28;20182;-46
2023/05/16 09:13:53;;;;;;;6.43;2.00;;;13.30;99.90;;;;;;5094259;28;20651;-47
2023/05/16 09:16:19;;;;;;;8.57;1.63;;;13.50;99.90;;;;;;5094289;28;20182;-47
2023/05/16 09:18:56;;;;;;;5.33;1.43;;;13.80;99.90;;;;;;5093104;28;20210;-46
2023/05/16 09:21:27;;;;;;;4.30;1.43;;;13.90;99.90;;;;;;5094267;28;20151;-46
2023/05/16 09:23:52;;;;;;;5.63;1.10;;;13.80;99.90;;;;;;5094125;28;20273;-48
2023/05/16 09:26:18;;;;;;;6.97;1.90;;;13.60;99.90;;;;;;5094324;28;20270;-46
2023/05/16 09:28:44;;;;;;;7.20;1.90;;;13.60;99.90;;;;;;5093304;28;20623;-45
2023/05/16 09:31:25;;;;;;;8.80;1.57;;;13.60;99.90;;;;;;5094169;28;20178;-52
2023/05/16 09:33:51;;;;;;;6.93;1.50;;;13.70;99.90;;;;;;5093861;28;20202;-51
2023/05/16 09:36:17;;;;;;;3.57;1.30;;;13.80;99.90;;;;;;5093976;28;20207;-52
2023/05/16 09:38:43;;;;;;;4.80;1.53;;;14.00;99.90;;;;;;5094138;28;20273;-51
2023/05/16 09:41:12;;;;;;;5.10;1.00;;;14.10;99.90;;;;;;5094456;28;20186;-52
2023/05/16 09:43:39;;;;;;;3.10;1.07;;;14.30;99.90;;;;;;5093968;28;20267;-51
2023/05/16 09:46:05;;;;;;;6.40;1.40;;;14.20;99.90;;;;;;5092969;28;20198;-51
2023/05/16 09:48:32;;;;;;;4.53;1.33;;;14.00;99.90;;;;;;5095607;28;20197;-52
2023/05/16 09:51:02;;;;;;;7.47;1.40;;;13.80;99.90;;;;;;5094457;28;20700;-52
2023/05/16 09:53:31;;;;;;;4.17;1.20;;;13.70;99.90;;;;;;5093718;28;20776;-51
2023/05/16 09:56:01;;;;;;;6.67;1.83;;;13.60;99.90;;;;;;5093821;28;20175;-52
2023/05/16 09:58:31;;;;;;;6.03;1.23;;;13.50;99.90;;;;;;5094177;28;20175;-51
2023/05/16 10:00:57;;;;;;;3.90;1.43;;;13.40;99.90;;;;;;5093875;28;20581;-52
2023/05/16 10:03:24;;;;;;;3.53;1.27;;;13.50;99.90;;;;;;5093699;28;20202;-51
2023/05/16 10:05:51;;;;;;;7.97;1.70;;;13.50;99.90;;;;;;5093546;28;20638;-52
2023/05/16 10:08:21;;;;;;;3.87;1.10;;;13.60;99.90;;;;;;5093712;28;20171;-53
2023/05/16 10:10:51;;;;;;;4.63;0.93;;;13.70;99.90;;;;;;5093068;28;20265;-51
2023/05/16 10:13:28;;;;;;;4.63;1.00;;;13.90;99.90;;;;;;5093653;28;20199;-51
2023/05/16 10:15:55;;;;;;;4.23;1.13;;;13.90;99.90;;;;;;5093767;28;20173;-50
2023/05/16 10:18:22;;;;;;;4.87;1.27;;;14.00;99.90;;;;;;5093673;28;20553;-51
2023/05/16 10:20:52;;;;;;;4.83;1.27;;;14.10;99.90;;;;;;5093388;28;20186;-51
2023/05/16 10:23:19;;;;;;;2.67;1.00;;;14.30;99.90;;;;;;5093475;28;20195;-51
2023/05/16 10:25:47;;;;;;;5.70;1.50;;;14.30;99.90;;;;;;5093514;28;20647;-52
2023/05/16 10:28:15;;;;;;;4.63;1.10;;;14.20;99.90;;;;;;5093260;28;20210;-51
2023/05/16 10:30:43;;;;;;;4.57;1.37;;;14.00;99.90;;;;;;5093339;28;20199;-51
2023/05/16 10:33:13;;;;;;;7.17;1.37;;;13.90;99.90;;;;;;5091881;28;20206;-52
2023/05/16 10:35:39;;;;;;;8.10;1.27;;;13.80;99.90;;;;;;5093182;28;20171;-52
2023/05/16 10:38:08;;;;;;;4.90;1.20;;;13.90;99.90;;;;;;5093218;28;20179;-52
2023/05/16 10:40:36;;;;;;;5.97;1.37;;;14.00;99.90;;;;;;5093118;28;20201;-52
2023/05/16 10:43:03;;;;;;;3.77;1.00;;;14.00;99.90;;;;;;5093343;28;20198;-52
2023/05/16 10:45:29;;;;;;;2.37;0.90;;;14.10;99.90;;;;;;5093113;28;20191;-53
2023/05/16 10:48:00;;;;;;;4.90;1.37;;;14.20;99.90;;;;;;5093152;28;20175;-50
2023/05/16 10:50:35;;;;;;;2.63;0.93;;;14.40;99.90;;;;;;5093406;28;20167;-53
2023/05/16 10:53:14;;;;;;;6.07;1.23;;;14.60;99.90;;;;;;5093621;28;20226;-51
2023/05/16 10:55:58;;;;;;;3.43;1.20;;;14.80;99.90;;;;;;5093326;28;20667;-53
2023/05/16 10:58:39;;;;;;;3.70;1.17;;;14.90;99.90;;;;;;5093051;28;20239;-52
2023/05/16 11:01:15;;;;;;;2.57;0.90;;;14.80;99.90;;;;;;5093336;28;20166;-50
2023/05/16 11:03:59;;;;;;;2.43;1.10;;;15.00;99.90;;;;;;5092925;28;20545;-52
2023/05/16 11:06:41;;;;;;;7.23;1.33;;;15.20;99.90;;;;;;5093460;28;20174;-52
2023/05/16 11:09:12;;;;;;;2.83;1.00;;;15.00;99.90;;;;;;5093525;28;20159;-53
2023/05/16 11:11:38;;;;;;;2.27;0.97;;;14.80;99.90;;;;;;5093215;28;20164;-52
2023/05/16 11:14:04;;;;;;;8.17;1.30;;;14.70;99.90;;;;;;5093001;28;20708;-52
2023/05/16 11:16:30;;;;;;;5.70;1.10;;;14.80;99.90;;;;;;5091582;28;20530;-50
2023/05/16 11:19:06;;;;;;;3.67;1.10;;;15.00;99.90;;;;;;5093025;28;20199;-53
2023/05/16 11:22:10;;;;;;;5.50;1.20;;;15.00;99.90;;;;;;5094458;28;20237;-52
2023/05/16 11:24:38;;;;;;;2.90;1.07;;;15.00;99.90;;;;;;5096389;28;20198;-53
2023/05/16 11:27:04;;;;;;;2.47;1.23;;;14.90;99.90;;;;;;5096344;28;20583;-52
2023/05/16 11:29:34;;;;;;;6.83;1.47;;;15.10;99.90;;;;;;5096299;28;20689;-51
2023/05/16 11:32:02;;;;;;;8.37;0.90;;;15.20;99.90;;;;;;5096638;28;20198;-51
2023/05/16 11:34:29;;;;;;;3.47;1.27;;;15.40;99.90;;;;;;5096439;28;20546;-51
2023/05/16 11:36:55;;;;;;;2.53;1.00;;;15.40;99.90;;;;;;5096305;28;20258;-52
2023/05/16 11:39:23;;;;;;;7.57;1.23;;;15.30;99.90;;;;;;5096319;28;20745;-53
2023/05/16 11:41:50;;;;;;;2.47;0.90;;;15.40;99.90;;;;;;5096396;28;20182;-51
2023/05/16 11:44:16;;;;;;;5.03;1.10;;;15.60;99.90;;;;;;5095877;28;20570;-52
2023/05/16 11:46:41;;;;;;;6.10;1.03;;;15.80;99.90;;;;;;5096224;28;20186;-53
2023/05/16 11:49:09;;;;;;;3.00;1.20;;;15.90;99.90;;;;;;5096126;28;20211;-53
2023/05/16 11:51:42;;;;;;;4.80;1.13;;;15.70;99.90;;;;;;5096109;28;20179;-51
2023/05/16 11:54:09;;;;;;;5.20;1.20;;;15.80;99.90;;;;;;5095887;28;20567;-52
2023/05/16 11:56:35;;;;;;;2.83;0.70;;;15.70;99.90;;;;;;5095754;28;20178;-52
2023/05/16 11:59:01;;;;;;;5.27;1.57;;;15.60;99.90;;;;;;5096027;28;20179;-52
2023/05/16 12:01:36;;;;;;;3.00;0.90;;;15.50;99.90;;;;;;5095929;28;20214;-52
2023/05/16 12:04:03;;;;;;;2.70;0.80;;;15.70;99.90;;;;;;5096216;28;20598;-51
2023/05/16 12:06:30;;;;;;;3.80;0.90;;;15.80;99.90;;;;;;5096457;28;20171;-52
2023/05/16 12:08:55;;;;;;;3.53;0.83;;;15.70;99.90;;;;;;5096441;28;20175;-51
2023/05/16 12:11:22;;;;;;;2.23;0.60;;;15.70;99.90;;;;;;5095534;28;20171;-52
2023/05/16 12:13:48;;;;;;;3.67;0.90;;;15.80;99.90;;;;;;5095337;28;20280;-53
2023/05/16 12:16:15;;;;;;;1.60;0.70;;;15.80;99.90;;;;;;5095994;28;20199;-51
2023/05/16 12:18:41;;;;;;;2.10;0.87;;;15.80;99.90;;;;;;5095411;28;20213;-50
2023/05/16 12:21:07;;;;;;;2.50;0.63;;;15.80;99.90;;;;;;5095584;28;20187;-52
2023/05/16 12:23:33;;;;;;;2.40;0.87;;;15.90;99.90;;;;;;5095457;28;20210;-52
2023/05/16 12:26:05;;;;;;;4.47;0.70;;;16.00;99.90;;;;;;5095117;28;20581;-52
2023/05/16 12:28:33;;;;;;;2.13;0.90;;;16.00;99.90;;;;;;5095107;28;20173;-52
2023/05/16 12:30:59;;;;;;;2.83;0.80;;;16.00;99.90;;;;;;5095097;28;20175;-52
2023/05/16 12:33:24;;;;;;;3.17;0.70;;;16.10;99.90;;;;;;5094637;28;20248;-51
2023/05/16 12:35:51;;;;;;;2.07;0.70;;;16.20;99.90;;;;;;5095024;28;20183;-51
2023/05/16 12:38:18;;;;;;;1.57;0.50;;;16.20;99.90;;;;;;5095243;28;20199;-52
2023/05/16 12:40:45;;;;;;;4.23;0.80;;;16.20;99.90;;;;;;5094863;28;20187;-51
2023/05/16 12:43:15;;;;;;;6.90;0.90;;;16.30;99.90;;;;;;5094765;28;20207;-52
2023/05/16 12:45:44;;;;;;;3.43;0.83;;;16.30;99.90;;;;;;5095014;28;20207;-53
2023/05/16 12:48:13;;;;;;;1.53;0.63;;;16.40;99.90;;;;;;5093499;28;20229;-47